sensor_id;sensor_type;location;lat;lon;timestamp;temperature;humidity
55988;DHT22;67216;50.930;4.514;2023-02-19T00:01:29;10.60;95.10
55988;DHT22;67216;50.930;4.514;2023-02-19T00:04:00;10.50;95.20
55988;DHT22;67216;50.930;4.514;2023-02-19T00:06:28;10.50;95.20
55988;DHT22;67216;50.930;4.514;2023-02-19T00:08:54;10.50;95.10
55988;DHT22;67216;50.930;4.514;2023-02-19T00:11:23;10.50;95.20
55988;DHT22;67216;50.930;4.514;2023-02-19T00:13:54;10.50;95.20
55988;DHT22;67216;50.930;4.514;2023-02-19T00:16:33;10.50;95.00
55988;DHT22;67216;50.930;4.514;2023-02-19T00:19:03;10.60;94.90
55988;DHT22;67216;50.930;4.514;2023-02-19T00:21:30;10.60;94.80
55988;DHT22;67216;50.930;4.514;2023-02-19T00:23:58;10.60;94.60
55988;DHT22;67216;50.930;4.514;2023-02-19T00:26:25;10.60;94.70
55988;DHT22;67216;50.930;4.514;2023-02-19T00:28:55;10.60;94.60
55988;DHT22;67216;50.930;4.514;2023-02-19T00:31:23;10.50;94.60
55988;DHT22;67216;50.930;4.514;2023-02-19T00:33:51;10.50;94.80
55988;DHT22;67216;50.930;4.514;2023-02-19T00:36:22;10.60;94.60
55988;DHT22;67216;50.930;4.514;2023-02-19T00:38:48;10.60;94.50
55988;DHT22;67216;50.930;4.514;2023-02-19T00:41:15;10.60;94.40
55988;DHT22;67216;50.930;4.514;2023-02-19T00:48:50;10.60;94.20
55988;DHT22;67216;50.930;4.514;2023-02-19T00:51:23;10.60;93.90
55988;DHT22;67216;50.930;4.514;2023-02-19T00:53:52;10.60;94.00
55988;DHT22;67216;50.930;4.514;2023-02-19T00:56:18;10.60;93.80
55988;DHT22;67216;50.930;4.514;2023-02-19T00:58:44;10.60;93.50
55988;DHT22;67216;50.930;4.514;2023-02-19T01:01:12;10.50;93.70
55988;DHT22;67216;50.930;4.514;2023-02-19T01:03:39;10.60;93.50
55988;DHT22;67216;50.930;4.514;2023-02-19T01:06:07;10.50;93.50
55988;DHT22;67216;50.930;4.514;2023-02-19T01:08:33;10.40;93.30
55988;DHT22;67216;50.930;4.514;2023-02-19T01:11:03;10.60;93.10
55988;DHT22;67216;50.930;4.514;2023-02-19T01:13:29;10.50;93.20
55988;DHT22;67216;50.930;4.514;2023-02-19T01:16:14;10.50;93.30
55988;DHT22;67216;50.930;4.514;2023-02-19T01:18:41;10.60;93.10
55988;DHT22;67216;50.930;4.514;2023-02-19T01:21:11;10.60;92.90
55988;DHT22;67216;50.930;4.514;2023-02-19T01:23:38;10.70;92.70
55988;DHT22;67216;50.930;4.514;2023-02-19T01:26:07;10.60;92.80
55988;DHT22;67216;50.930;4.514;2023-02-19T01:28:34;10.70;92.90
55988;DHT22;67216;50.930;4.514;2023-02-19T01:31:03;10.70;92.60
55988;DHT22;67216;50.930;4.514;2023-02-19T01:33:29;10.60;92.50
55988;DHT22;67216;50.930;4.514;2023-02-19T01:35:55;10.70;92.40
55988;DHT22;67216;50.930;4.514;2023-02-19T01:38:22;10.60;92.50
55988;DHT22;67216;50.930;4.514;2023-02-19T01:40:55;10.60;92.50
55988;DHT22;67216;50.930;4.514;2023-02-19T01:43:21;10.60;92.40
55988;DHT22;67216;50.930;4.514;2023-02-19T01:45:49;10.60;92.50
55988;DHT22;67216;50.930;4.514;2023-02-19T01:48:22;10.60;92.30
55988;DHT22;67216;50.930;4.514;2023-02-19T01:50:53;10.50;91.90
55988;DHT22;67216;50.930;4.514;2023-02-19T01:53:27;10.60;91.70
55988;DHT22;67216;50.930;4.514;2023-02-19T01:55:57;10.60;91.50
55988;DHT22;67216;50.930;4.514;2023-02-19T01:58:24;10.70;91.30
55988;DHT22;67216;50.930;4.514;2023-02-19T02:00:51;10.70;90.80
55988;DHT22;67216;50.930;4.514;2023-02-19T02:03:17;10.70;91.00
55988;DHT22;67216;50.930;4.514;2023-02-19T02:08:28;10.60;91.40
55988;DHT22;67216;50.930;4.514;2023-02-19T02:11:15;10.60;91.40
55988;DHT22;67216;50.930;4.514;2023-02-19T02:13:42;10.50;91.50
55988;DHT22;67216;50.930;4.514;2023-02-19T02:18:52;10.60;91.40
55988;DHT22;67216;50.930;4.514;2023-02-19T02:27:16;10.40;91.20
55988;DHT22;67216;50.930;4.514;2023-02-19T02:30:36;10.40;91.20
55988;DHT22;67216;50.930;4.514;2023-02-19T02:36:04;10.50;91.10
55988;DHT22;67216;50.930;4.514;2023-02-19T02:38:35;10.50;91.00
55988;DHT22;67216;50.930;4.514;2023-02-19T02:41:01;10.50;91.10
55988;DHT22;67216;50.930;4.514;2023-02-19T02:43:28;10.40;91.00
55988;DHT22;67216;50.930;4.514;2023-02-19T02:45:57;10.40;91.20
55988;DHT22;67216;50.930;4.514;2023-02-19T02:48:44;10.40;91.00
55988;DHT22;67216;50.930;4.514;2023-02-19T02:53:52;10.40;90.80
55988;DHT22;67216;50.930;4.514;2023-02-19T02:56:38;10.40;90.80
55988;DHT22;67216;50.930;4.514;2023-02-19T02:59:10;10.40;90.80
55988;DHT22;67216;50.930;4.514;2023-02-19T03:01:50;10.40;90.50
55988;DHT22;67216;50.930;4.514;2023-02-19T03:05:01;10.40;90.90
55988;DHT22;67216;50.930;4.514;2023-02-19T03:08:04;10.40;90.60
55988;DHT22;67216;50.930;4.514;2023-02-19T03:10:53;10.50;90.30
55988;DHT22;67216;50.930;4.514;2023-02-19T03:13:40;10.40;90.40
55988;DHT22;67216;50.930;4.514;2023-02-19T03:16:27;10.40;90.50
55988;DHT22;67216;50.930;4.514;2023-02-19T03:19:15;10.40;90.50
55988;DHT22;67216;50.930;4.514;2023-02-19T03:24:27;10.30;90.60
55988;DHT22;67216;50.930;4.514;2023-02-19T03:27:13;10.30;90.40
55988;DHT22;67216;50.930;4.514;2023-02-19T03:29:42;10.30;90.20
55988;DHT22;67216;50.930;4.514;2023-02-19T03:32:32;10.30;90.40
55988;DHT22;67216;50.930;4.514;2023-02-19T03:35:10;10.40;89.90
55988;DHT22;67216;50.930;4.514;2023-02-19T03:37:42;10.50;90.00
55988;DHT22;67216;50.930;4.514;2023-02-19T03:40:09;10.40;90.50
55988;DHT22;67216;50.930;4.514;2023-02-19T03:48:39;10.40;89.30
55988;DHT22;67216;50.930;4.514;2023-02-19T03:51:33;10.50;89.40
55988;DHT22;67216;50.930;4.514;2023-02-19T03:56:57;10.50;89.00
55988;DHT22;67216;50.930;4.514;2023-02-19T04:02:39;10.30;89.60
55988;DHT22;67216;50.930;4.514;2023-02-19T04:07:34;10.40;89.20
55988;DHT22;67216;50.930;4.514;2023-02-19T04:10:06;10.40;89.10
55988;DHT22;67216;50.930;4.514;2023-02-19T04:12:35;10.40;89.20
55988;DHT22;67216;50.930;4.514;2023-02-19T04:15:05;10.40;89.20
55988;DHT22;67216;50.930;4.514;2023-02-19T04:17:38;10.30;89.30
55988;DHT22;67216;50.930;4.514;2023-02-19T04:20:09;10.30;89.50
55988;DHT22;67216;50.930;4.514;2023-02-19T04:22:37;10.40;89.00
55988;DHT22;67216;50.930;4.514;2023-02-19T04:25:05;10.40;88.50
55988;DHT22;67216;50.930;4.514;2023-02-19T04:27:37;10.30;88.90
55988;DHT22;67216;50.930;4.514;2023-02-19T04:30:05;10.40;88.90
55988;DHT22;67216;50.930;4.514;2023-02-19T04:32:31;10.40;89.00
55988;DHT22;67216;50.930;4.514;2023-02-19T04:34:57;10.40;88.70
55988;DHT22;67216;50.930;4.514;2023-02-19T04:37:23;10.40;88.20
55988;DHT22;67216;50.930;4.514;2023-02-19T04:39:48;10.50;88.20
55988;DHT22;67216;50.930;4.514;2023-02-19T04:42:14;10.40;88.60
55988;DHT22;67216;50.930;4.514;2023-02-19T04:44:40;10.40;88.60
55988;DHT22;67216;50.930;4.514;2023-02-19T04:47:08;10.40;88.40
55988;DHT22;67216;50.930;4.514;2023-02-19T04:49:33;10.40;88.70
55988;DHT22;67216;50.930;4.514;2023-02-19T04:52:02;10.40;88.50
55988;DHT22;67216;50.930;4.514;2023-02-19T04:54:27;10.40;88.20
55988;DHT22;67216;50.930;4.514;2023-02-19T04:56:53;10.40;88.00
55988;DHT22;67216;50.930;4.514;2023-02-19T04:59:21;10.30;88.50
55988;DHT22;67216;50.930;4.514;2023-02-19T05:01:48;10.30;88.50
55988;DHT22;67216;50.930;4.514;2023-02-19T05:04:13;10.30;88.10
55988;DHT22;67216;50.930;4.514;2023-02-19T05:06:39;10.30;88.30
55988;DHT22;67216;50.930;4.514;2023-02-19T05:09:05;10.30;87.90
55988;DHT22;67216;50.930;4.514;2023-02-19T05:11:32;10.40;87.70
55988;DHT22;67216;50.930;4.514;2023-02-19T05:14:00;10.30;88.00
55988;DHT22;67216;50.930;4.514;2023-02-19T05:16:26;10.30;88.30
55988;DHT22;67216;50.930;4.514;2023-02-19T05:18:51;10.30;88.30
55988;DHT22;67216;50.930;4.514;2023-02-19T05:21:18;10.40;87.70
55988;DHT22;67216;50.930;4.514;2023-02-19T05:23:44;10.40;87.80
55988;DHT22;67216;50.930;4.514;2023-02-19T05:26:15;10.30;88.00
55988;DHT22;67216;50.930;4.514;2023-02-19T05:28:45;10.40;87.90
55988;DHT22;67216;50.930;4.514;2023-02-19T05:31:12;10.20;88.20
55988;DHT22;67216;50.930;4.514;2023-02-19T05:33:38;10.20;88.60
55988;DHT22;67216;50.930;4.514;2023-02-19T05:36:11;10.20;88.20
55988;DHT22;67216;50.930;4.514;2023-02-19T05:38:37;10.20;88.50
55988;DHT22;67216;50.930;4.514;2023-02-19T05:43:38;10.30;88.30
55988;DHT22;67216;50.930;4.514;2023-02-19T05:46:04;10.30;88.10
55988;DHT22;67216;50.930;4.514;2023-02-19T05:48:31;10.30;88.10
55988;DHT22;67216;50.930;4.514;2023-02-19T05:51:06;10.20;88.50
55988;DHT22;67216;50.930;4.514;2023-02-19T05:53:33;10.30;88.00
55988;DHT22;67216;50.930;4.514;2023-02-19T05:56:02;10.20;88.20
55988;DHT22;67216;50.930;4.514;2023-02-19T05:58:28;10.20;88.40
55988;DHT22;67216;50.930;4.514;2023-02-19T06:00:54;10.30;87.70
55988;DHT22;67216;50.930;4.514;2023-02-19T06:03:20;10.20;88.10
55988;DHT22;67216;50.930;4.514;2023-02-19T06:05:47;10.30;87.80
55988;DHT22;67216;50.930;4.514;2023-02-19T06:08:13;10.20;88.00
55988;DHT22;67216;50.930;4.514;2023-02-19T06:10:40;10.20;88.10
55988;DHT22;67216;50.930;4.514;2023-02-19T06:13:07;10.20;88.30
55988;DHT22;67216;50.930;4.514;2023-02-19T06:15:33;10.20;87.70
55988;DHT22;67216;50.930;4.514;2023-02-19T06:17:59;10.30;87.60
55988;DHT22;67216;50.930;4.514;2023-02-19T06:20:25;10.20;87.50
55988;DHT22;67216;50.930;4.514;2023-02-19T06:22:51;10.20;87.20
55988;DHT22;67216;50.930;4.514;2023-02-19T06:25:18;10.20;87.90
55988;DHT22;67216;50.930;4.514;2023-02-19T06:27:44;10.20;87.60
55988;DHT22;67216;50.930;4.514;2023-02-19T06:30:12;10.30;87.40
55988;DHT22;67216;50.930;4.514;2023-02-19T06:32:38;10.30;87.50
55988;DHT22;67216;50.930;4.514;2023-02-19T06:35:04;10.30;87.30
55988;DHT22;67216;50.930;4.514;2023-02-19T06:37:30;10.10;87.90
55988;DHT22;67216;50.930;4.514;2023-02-19T06:39:56;10.20;87.60
55988;DHT22;67216;50.930;4.514;2023-02-19T06:42:22;10.20;87.60
55988;DHT22;67216;50.930;4.514;2023-02-19T06:44:48;10.30;87.30
55988;DHT22;67216;50.930;4.514;2023-02-19T06:47:14;10.40;86.50
55988;DHT22;67216;50.930;4.514;2023-02-19T06:49:42;10.30;87.40
55988;DHT22;67216;50.930;4.514;2023-02-19T06:52:08;10.20;87.70
55988;DHT22;67216;50.930;4.514;2023-02-19T06:54:34;10.20;87.20
55988;DHT22;67216;50.930;4.514;2023-02-19T06:57:03;10.20;87.20
55988;DHT22;67216;50.930;4.514;2023-02-19T06:59:33;10.10;87.30
55988;DHT22;67216;50.930;4.514;2023-02-19T07:01:58;10.10;87.60
55988;DHT22;67216;50.930;4.514;2023-02-19T07:04:24;10.10;87.50
55988;DHT22;67216;50.930;4.514;2023-02-19T07:06:53;10.20;87.60
55988;DHT22;67216;50.930;4.514;2023-02-19T07:09:19;10.20;87.10
55988;DHT22;67216;50.930;4.514;2023-02-19T07:11:45;10.20;86.90
55988;DHT22;67216;50.930;4.514;2023-02-19T07:14:16;10.20;86.70
55988;DHT22;67216;50.930;4.514;2023-02-19T07:16:42;10.10;87.80
55988;DHT22;67216;50.930;4.514;2023-02-19T07:19:09;10.10;87.80
55988;DHT22;67216;50.930;4.514;2023-02-19T07:21:38;10.00;88.00
55988;DHT22;67216;50.930;4.514;2023-02-19T07:24:08;10.20;87.60
55988;DHT22;67216;50.930;4.514;2023-02-19T07:26:36;10.20;87.00
55988;DHT22;67216;50.930;4.514;2023-02-19T07:29:04;10.20;87.00
55988;DHT22;67216;50.930;4.514;2023-02-19T07:31:30;10.30;86.60
55988;DHT22;67216;50.930;4.514;2023-02-19T07:33:56;10.40;85.80
55988;DHT22;67216;50.930;4.514;2023-02-19T07:36:23;10.30;85.80
55988;DHT22;67216;50.930;4.514;2023-02-19T07:38:59;10.30;86.40
55988;DHT22;67216;50.930;4.514;2023-02-19T07:41:27;10.40;86.20
55988;DHT22;67216;50.930;4.514;2023-02-19T07:43:54;10.40;85.90
55988;DHT22;67216;50.930;4.514;2023-02-19T07:46:22;10.40;85.30
55988;DHT22;67216;50.930;4.514;2023-02-19T07:48:51;10.40;86.40
55988;DHT22;67216;50.930;4.514;2023-02-19T07:51:18;10.30;87.50
55988;DHT22;67216;50.930;4.514;2023-02-19T07:53:45;10.30;88.30
55988;DHT22;67216;50.930;4.514;2023-02-19T07:56:12;10.10;89.30
55988;DHT22;67216;50.930;4.514;2023-02-19T07:58:40;10.10;89.10
55988;DHT22;67216;50.930;4.514;2023-02-19T08:01:13;10.10;88.90
55988;DHT22;67216;50.930;4.514;2023-02-19T08:03:40;10.20;88.50
55988;DHT22;67216;50.930;4.514;2023-02-19T08:06:08;10.10;88.20
55988;DHT22;67216;50.930;4.514;2023-02-19T08:08:36;10.20;88.10
55988;DHT22;67216;50.930;4.514;2023-02-19T08:11:03;10.10;88.40
55988;DHT22;67216;50.930;4.514;2023-02-19T08:13:48;10.00;89.60
55988;DHT22;67216;50.930;4.514;2023-02-19T08:16:18;9.90;90.00
55988;DHT22;67216;50.930;4.514;2023-02-19T08:18:45;9.80;90.20
55988;DHT22;67216;50.930;4.514;2023-02-19T08:21:12;9.90;90.50
55988;DHT22;67216;50.930;4.514;2023-02-19T08:23:39;9.80;90.30
55988;DHT22;67216;50.930;4.514;2023-02-19T08:26:06;9.90;90.30
55988;DHT22;67216;50.930;4.514;2023-02-19T08:28:32;10.00;89.80
55988;DHT22;67216;50.930;4.514;2023-02-19T08:31:00;10.00;89.40
55988;DHT22;67216;50.930;4.514;2023-02-19T08:33:29;10.00;89.10
55988;DHT22;67216;50.930;4.514;2023-02-19T08:35:55;10.00;89.20
55988;DHT22;67216;50.930;4.514;2023-02-19T08:38:21;10.10;89.30
55988;DHT22;67216;50.930;4.514;2023-02-19T08:40:47;10.20;88.80
55988;DHT22;67216;50.930;4.514;2023-02-19T08:43:16;10.10;88.60
55988;DHT22;67216;50.930;4.514;2023-02-19T08:45:46;10.10;89.40
55988;DHT22;67216;50.930;4.514;2023-02-19T08:48:11;10.00;89.70
55988;DHT22;67216;50.930;4.514;2023-02-19T08:50:38;9.90;89.70
55988;DHT22;67216;50.930;4.514;2023-02-19T08:53:06;10.00;89.60
55988;DHT22;67216;50.930;4.514;2023-02-19T08:55:33;10.10;89.00
55988;DHT22;67216;50.930;4.514;2023-02-19T08:58:01;10.10;88.60
55988;DHT22;67216;50.930;4.514;2023-02-19T09:00:26;10.20;88.00
55988;DHT22;67216;50.930;4.514;2023-02-19T09:02:52;10.30;87.90
55988;DHT22;67216;50.930;4.514;2023-02-19T09:05:21;10.30;87.50
55988;DHT22;67216;50.930;4.514;2023-02-19T09:07:49;10.30;88.10
55988;DHT22;67216;50.930;4.514;2023-02-19T09:10:19;10.40;87.50
55988;DHT22;67216;50.930;4.514;2023-02-19T09:12:45;10.50;87.80
55988;DHT22;67216;50.930;4.514;2023-02-19T09:15:11;10.70;86.40
55988;DHT22;67216;50.930;4.514;2023-02-19T09:17:37;10.70;86.20
55988;DHT22;67216;50.930;4.514;2023-02-19T09:20:06;10.70;86.20
55988;DHT22;67216;50.930;4.514;2023-02-19T09:22:35;10.60;87.40
55988;DHT22;67216;50.930;4.514;2023-02-19T09:25:01;10.60;87.00
55988;DHT22;67216;50.930;4.514;2023-02-19T09:27:32;10.60;86.90
55988;DHT22;67216;50.930;4.514;2023-02-19T09:29:57;10.70;86.70
55988;DHT22;67216;50.930;4.514;2023-02-19T09:32:24;10.70;85.00
55988;DHT22;67216;50.930;4.514;2023-02-19T09:34:49;10.80;86.00
55988;DHT22;67216;50.930;4.514;2023-02-19T09:37:16;10.90;85.80
55988;DHT22;67216;50.930;4.514;2023-02-19T09:39:44;10.90;85.00
55988;DHT22;67216;50.930;4.514;2023-02-19T09:42:14;10.80;85.10
55988;DHT22;67216;50.930;4.514;2023-02-19T09:44:45;10.90;85.40
55988;DHT22;67216;50.930;4.514;2023-02-19T09:47:21;11.00;84.90
55988;DHT22;67216;50.930;4.514;2023-02-19T09:49:49;11.10;83.70
55988;DHT22;67216;50.930;4.514;2023-02-19T09:54:51;10.90;84.70
55988;DHT22;67216;50.930;4.514;2023-02-19T09:57:23;10.80;85.10
55988;DHT22;67216;50.930;4.514;2023-02-19T09:59:57;10.90;85.50
55988;DHT22;67216;50.930;4.514;2023-02-19T10:02:25;10.90;84.50
55988;DHT22;67216;50.930;4.514;2023-02-19T10:04:55;11.10;84.50
55988;DHT22;67216;50.930;4.514;2023-02-19T10:07:59;11.20;83.60
55988;DHT22;67216;50.930;4.514;2023-02-19T10:10:31;11.10;82.70
55988;DHT22;67216;50.930;4.514;2023-02-19T10:13:22;11.10;83.20
55988;DHT22;67216;50.930;4.514;2023-02-19T10:18:23;11.30;82.00
55988;DHT22;67216;50.930;4.514;2023-02-19T10:20:51;11.30;82.30
55988;DHT22;67216;50.930;4.514;2023-02-19T10:23:17;11.40;81.60
55988;DHT22;67216;50.930;4.514;2023-02-19T10:25:51;11.40;82.30
55988;DHT22;67216;50.930;4.514;2023-02-19T10:28:20;11.20;81.60
55988;DHT22;67216;50.930;4.514;2023-02-19T10:30:57;11.10;82.40
55988;DHT22;67216;50.930;4.514;2023-02-19T10:33:24;11.10;82.30
55988;DHT22;67216;50.930;4.514;2023-02-19T10:35:57;11.10;82.70
55988;DHT22;67216;50.930;4.514;2023-02-19T10:38:29;11.20;82.20
55988;DHT22;67216;50.930;4.514;2023-02-19T10:41:07;11.10;82.40
55988;DHT22;67216;50.930;4.514;2023-02-19T10:43:52;11.10;81.50
55988;DHT22;67216;50.930;4.514;2023-02-19T10:46:27;11.20;82.80
55988;DHT22;67216;50.930;4.514;2023-02-19T10:49:03;11.40;81.60
55988;DHT22;67216;50.930;4.514;2023-02-19T10:51:38;11.40;81.00
55988;DHT22;67216;50.930;4.514;2023-02-19T10:54:05;11.40;80.90
55988;DHT22;67216;50.930;4.514;2023-02-19T10:56:32;11.40;81.50
55988;DHT22;67216;50.930;4.514;2023-02-19T11:04:19;11.30;80.40
55988;DHT22;67216;50.930;4.514;2023-02-19T11:06:45;11.20;80.90
55988;DHT22;67216;50.930;4.514;2023-02-19T11:09:33;11.20;80.70
55988;DHT22;67216;50.930;4.514;2023-02-19T11:12:02;11.20;80.50
55988;DHT22;67216;50.930;4.514;2023-02-19T11:14:30;11.20;81.00
55988;DHT22;67216;50.930;4.514;2023-02-19T11:16:58;11.20;81.10
55988;DHT22;67216;50.930;4.514;2023-02-19T11:22:15;11.30;79.90
55988;DHT22;67216;50.930;4.514;2023-02-19T11:24:47;11.50;79.70
55988;DHT22;67216;50.930;4.514;2023-02-19T11:27:18;11.40;79.00
55988;DHT22;67216;50.930;4.514;2023-02-19T11:29:45;11.40;79.50
55988;DHT22;67216;50.930;4.514;2023-02-19T11:32:27;11.50;78.60
55988;DHT22;67216;50.930;4.514;2023-02-19T11:35:19;11.40;78.90
55988;DHT22;67216;50.930;4.514;2023-02-19T11:37:59;11.30;79.00
55988;DHT22;67216;50.930;4.514;2023-02-19T11:43:15;11.20;79.10
55988;DHT22;67216;50.930;4.514;2023-02-19T11:48:51;11.10;79.80
55988;DHT22;67216;50.930;4.514;2023-02-19T11:51:29;11.00;79.90
55988;DHT22;67216;50.930;4.514;2023-02-19T11:54:18;11.00;80.30
55988;DHT22;67216;50.930;4.514;2023-02-19T11:57:12;11.00;81.00
55988;DHT22;67216;50.930;4.514;2023-02-19T12:05:32;11.10;80.10
55988;DHT22;67216;50.930;4.514;2023-02-19T12:19:40;11.20;79.10
55988;DHT22;67216;50.930;4.514;2023-02-19T12:22:45;11.00;80.20
55988;DHT22;67216;50.930;4.514;2023-02-19T12:33:54;11.00;80.10
55988;DHT22;67216;50.930;4.514;2023-02-19T12:41:43;11.00;80.30
55988;DHT22;67216;50.930;4.514;2023-02-19T12:47:04;10.80;80.70
55988;DHT22;67216;50.930;4.514;2023-02-19T12:49:37;10.90;80.20
55988;DHT22;67216;50.930;4.514;2023-02-19T12:52:30;10.80;81.10
55988;DHT22;67216;50.930;4.514;2023-02-19T12:55:06;10.80;81.50
55988;DHT22;67216;50.930;4.514;2023-02-19T12:57:37;10.70;82.20
55988;DHT22;67216;50.930;4.514;2023-02-19T13:06:20;10.90;82.30
55988;DHT22;67216;50.930;4.514;2023-02-19T13:09:38;10.80;82.10
55988;DHT22;67216;50.930;4.514;2023-02-19T13:11:53;10.80;82.50
55988;DHT22;67216;50.930;4.514;2023-02-19T13:14:25;10.60;82.00
55988;DHT22;67216;50.930;4.514;2023-02-19T13:16:57;10.60;82.50
55988;DHT22;67216;50.930;4.514;2023-02-19T13:19:24;10.70;82.30
55988;DHT22;67216;50.930;4.514;2023-02-19T13:22:02;10.80;81.80
55988;DHT22;67216;50.930;4.514;2023-02-19T13:24:49;10.80;81.30
55988;DHT22;67216;50.930;4.514;2023-02-19T13:37:40;10.90;80.00
55988;DHT22;67216;50.930;4.514;2023-02-19T13:40:29;10.80;80.00
55988;DHT22;67216;50.930;4.514;2023-02-19T13:43:04;10.90;79.60
55988;DHT22;67216;50.930;4.514;2023-02-19T13:45:42;10.70;80.20
55988;DHT22;67216;50.930;4.514;2023-02-19T13:50:48;10.80;80.50
55988;DHT22;67216;50.930;4.514;2023-02-19T14:12:36;10.30;83.30
55988;DHT22;67216;50.930;4.514;2023-02-19T14:15:37;10.30;83.70
55988;DHT22;67216;50.930;4.514;2023-02-19T14:18:42;10.10;83.70
55988;DHT22;67216;50.930;4.514;2023-02-19T14:21:33;10.10;84.10
55988;DHT22;67216;50.930;4.514;2023-02-19T14:24:00;10.10;83.20
55988;DHT22;67216;50.930;4.514;2023-02-19T14:26:27;10.10;83.10
55988;DHT22;67216;50.930;4.514;2023-02-19T14:28:55;10.10;83.70
55988;DHT22;67216;50.930;4.514;2023-02-19T14:31:33;10.10;83.80
55988;DHT22;67216;50.930;4.514;2023-02-19T14:34:04;10.20;83.60
55988;DHT22;67216;50.930;4.514;2023-02-19T14:41:41;10.00;86.20
55988;DHT22;67216;50.930;4.514;2023-02-19T14:44:13;9.90;85.80
55988;DHT22;67216;50.930;4.514;2023-02-19T14:46:56;9.80;86.40
55988;DHT22;67216;50.930;4.514;2023-02-19T14:49:53;9.70;87.30
55988;DHT22;67216;50.930;4.514;2023-02-19T14:52:23;9.70;87.90
55988;DHT22;67216;50.930;4.514;2023-02-19T14:54:54;9.50;88.30
55988;DHT22;67216;50.930;4.514;2023-02-19T14:57:31;9.50;88.90
55988;DHT22;67216;50.930;4.514;2023-02-19T14:59:59;9.50;88.90
55988;DHT22;67216;50.930;4.514;2023-02-19T15:02:30;9.70;88.10
55988;DHT22;67216;50.930;4.514;2023-02-19T15:04:57;9.80;85.80
55988;DHT22;67216;50.930;4.514;2023-02-19T15:07:31;9.80;83.00
55988;DHT22;67216;50.930;4.514;2023-02-19T15:10:02;9.90;82.80
55988;DHT22;67216;50.930;4.514;2023-02-19T15:12:33;9.90;81.30
55988;DHT22;67216;50.930;4.514;2023-02-19T15:15:03;9.90;80.70
55988;DHT22;67216;50.930;4.514;2023-02-19T15:17:31;9.80;81.50
55988;DHT22;67216;50.930;4.514;2023-02-19T15:20:03;9.80;81.80
55988;DHT22;67216;50.930;4.514;2023-02-19T15:22:36;9.90;82.00
55988;DHT22;67216;50.930;4.514;2023-02-19T15:25:05;9.90;81.10
55988;DHT22;67216;50.930;4.514;2023-02-19T15:27:31;9.90;81.90
55988;DHT22;67216;50.930;4.514;2023-02-19T15:29:58;9.80;82.70
55988;DHT22;67216;50.930;4.514;2023-02-19T15:32:25;9.80;83.00
55988;DHT22;67216;50.930;4.514;2023-02-19T15:34:56;9.80;84.10
55988;DHT22;67216;50.930;4.514;2023-02-19T15:37:25;10.00;82.70
55988;DHT22;67216;50.930;4.514;2023-02-19T15:39:53;9.90;82.20
55988;DHT22;67216;50.930;4.514;2023-02-19T15:42:23;9.90;81.60
55988;DHT22;67216;50.930;4.514;2023-02-19T15:47:47;10.00;81.90
55988;DHT22;67216;50.930;4.514;2023-02-19T15:50:15;9.90;81.30
55988;DHT22;67216;50.930;4.514;2023-02-19T15:55:34;9.90;81.40
55988;DHT22;67216;50.930;4.514;2023-02-19T15:58:27;9.80;82.30
55988;DHT22;67216;50.930;4.514;2023-02-19T16:01:04;9.80;82.50
55988;DHT22;67216;50.930;4.514;2023-02-19T16:03:34;9.70;82.20
55988;DHT22;67216;50.930;4.514;2023-02-19T16:06:11;9.60;83.00
55988;DHT22;67216;50.930;4.514;2023-02-19T16:08:41;9.60;83.40
55988;DHT22;67216;50.930;4.514;2023-02-19T16:11:27;9.60;82.90
55988;DHT22;67216;50.930;4.514;2023-02-19T16:14:23;9.60;83.30
55988;DHT22;67216;50.930;4.514;2023-02-19T16:20:00;9.50;84.50
55988;DHT22;67216;50.930;4.514;2023-02-19T16:22:29;9.50;84.10
55988;DHT22;67216;50.930;4.514;2023-02-19T16:24:59;9.40;84.90
55988;DHT22;67216;50.930;4.514;2023-02-19T16:27:28;9.40;85.30
55988;DHT22;67216;50.930;4.514;2023-02-19T16:29:56;9.50;85.50
55988;DHT22;67216;50.930;4.514;2023-02-19T16:32:23;9.50;84.20
55988;DHT22;67216;50.930;4.514;2023-02-19T16:34:50;9.40;84.30
55988;DHT22;67216;50.930;4.514;2023-02-19T16:37:34;9.40;84.90
55988;DHT22;67216;50.930;4.514;2023-02-19T16:43:06;9.30;83.70
55988;DHT22;67216;50.930;4.514;2023-02-19T16:45:23;9.30;84.30
55988;DHT22;67216;50.930;4.514;2023-02-19T16:47:51;9.40;83.90
55988;DHT22;67216;50.930;4.514;2023-02-19T16:50:19;9.40;83.40
55988;DHT22;67216;50.930;4.514;2023-02-19T16:52:53;9.40;83.30
55988;DHT22;67216;50.930;4.514;2023-02-19T16:55:21;9.30;83.50
55988;DHT22;67216;50.930;4.514;2023-02-19T16:57:47;9.30;83.20
55988;DHT22;67216;50.930;4.514;2023-02-19T17:00:21;9.40;83.60
55988;DHT22;67216;50.930;4.514;2023-02-19T17:02:54;9.30;84.00
55988;DHT22;67216;50.930;4.514;2023-02-19T17:05:22;9.30;83.70
55988;DHT22;67216;50.930;4.514;2023-02-19T17:07:50;9.30;83.50
55988;DHT22;67216;50.930;4.514;2023-02-19T17:10:24;9.30;84.00
55988;DHT22;67216;50.930;4.514;2023-02-19T17:12:50;9.20;84.40
55988;DHT22;67216;50.930;4.514;2023-02-19T17:15:17;9.20;84.50
55988;DHT22;67216;50.930;4.514;2023-02-19T17:17:43;9.10;84.50
55988;DHT22;67216;50.930;4.514;2023-02-19T17:20:22;9.10;84.60
55988;DHT22;67216;50.930;4.514;2023-02-19T17:22:54;9.10;85.10
55988;DHT22;67216;50.930;4.514;2023-02-19T17:25:23;9.10;85.40
55988;DHT22;67216;50.930;4.514;2023-02-19T17:27:49;9.10;85.30
55988;DHT22;67216;50.930;4.514;2023-02-19T17:32:48;9.10;85.20
55988;DHT22;67216;50.930;4.514;2023-02-19T17:35:17;9.10;85.90
55988;DHT22;67216;50.930;4.514;2023-02-19T17:37:42;9.20;85.40
55988;DHT22;67216;50.930;4.514;2023-02-19T17:40:24;9.10;85.90
55988;DHT22;67216;50.930;4.514;2023-02-19T17:42:51;9.10;85.80
55988;DHT22;67216;50.930;4.514;2023-02-19T17:45:21;9.10;86.20
55988;DHT22;67216;50.930;4.514;2023-02-19T17:47:48;8.90;86.60
55988;DHT22;67216;50.930;4.514;2023-02-19T17:50:20;8.90;86.90
55988;DHT22;67216;50.930;4.514;2023-02-19T17:52:46;9.00;86.50
55988;DHT22;67216;50.930;4.514;2023-02-19T17:55:13;8.90;86.90
55988;DHT22;67216;50.930;4.514;2023-02-19T17:57:46;9.00;87.20
55988;DHT22;67216;50.930;4.514;2023-02-19T18:00:20;9.10;86.60
55988;DHT22;67216;50.930;4.514;2023-02-19T18:02:46;9.00;86.70
55988;DHT22;67216;50.930;4.514;2023-02-19T18:05:14;9.00;87.10
55988;DHT22;67216;50.930;4.514;2023-02-19T18:07:45;9.10;87.00
55988;DHT22;67216;50.930;4.514;2023-02-19T18:10:12;9.20;86.50
55988;DHT22;67216;50.930;4.514;2023-02-19T18:12:38;9.20;86.00
55988;DHT22;67216;50.930;4.514;2023-02-19T18:15:06;9.10;86.20
55988;DHT22;67216;50.930;4.514;2023-02-19T18:17:32;9.20;86.40
55988;DHT22;67216;50.930;4.514;2023-02-19T18:19:58;9.20;86.20
55988;DHT22;67216;50.930;4.514;2023-02-19T18:22:24;9.20;86.20
55988;DHT22;67216;50.930;4.514;2023-02-19T18:24:52;9.00;86.70
55988;DHT22;67216;50.930;4.514;2023-02-19T18:27:21;9.10;86.40
55988;DHT22;67216;50.930;4.514;2023-02-19T18:29:51;9.20;86.20
55988;DHT22;67216;50.930;4.514;2023-02-19T18:32:20;9.10;86.40